TimeCEST,TemperatureF,Dew PointF,Humidity,Sea Level PressureIn,VisibilityMPH,Wind Direction,Wind SpeedMPH,Gust SpeedMPH,PrecipitationIn,Events,Conditions,WindDirDegrees,DateUTC
12:00 AM,60.8,59.0,94,30.12,6.2,NE,3.5,-,N/A,,Partly Cloudy,50,2012-10-03 22:00:00
12:30 AM,62.6,59.0,88,30.12,6.2,NE,2.3,-,N/A,,Partly Cloudy,50,2012-10-03 22:30:00
1:00 AM,60.8,59.0,94,30.09,-9999.0,NE,3.5,-,N/A,,Clear,40,2012-10-03 23:00:00
1:30 AM,60.8,59.0,94,30.09,-9999.0,ENE,2.3,-,N/A,,Clear,60,2012-10-03 23:30:00
2:00 AM,59,55,83,30.11,16,Calm,Calm,,,,,,2012-10-04 00:00:00
2:00 AM,60.8,59.0,94,30.09,-9999.0,NE,1.2,-,N/A,,Clear,50,2012-10-04 00:00:00
2:30 AM,59.0,57.2,94,30.09,-9999.0,North,3.5,-,N/A,,Clear,10,2012-10-04 00:30:00
3:00 AM,60.8,59.0,94,30.09,-9999.0,NE,1.2,-,N/A,,Clear,50,2012-10-04 01:00:00
3:30 AM,59.0,57.2,94,30.06,6.2,NE,2.3,-,N/A,,Partly Cloudy,40,2012-10-04 01:30:00
4:00 AM,59.0,57.2,94,30.06,6.2,North,2.3,-,N/A,,Scattered Clouds,10,2012-10-04 02:00:00
4:30 AM,59.0,59.0,100,30.06,6.2,NNE,2.3,-,N/A,,Scattered Clouds,20,2012-10-04 02:30:00
5:00 AM,59.0,57.2,94,30.06,6.2,Variable,2.3,-,N/A,,Partly Cloudy,0,2012-10-04 03:00:00
5:30 AM,59.0,59.0,100,30.06,6.2,NE,1.2,-,N/A,,Partly Cloudy,40,2012-10-04 03:30:00
6:00 AM,59.0,57.2,94,30.06,6.2,Variable,1.2,-,N/A,,Partly Cloudy,0,2012-10-04 04:00:00
6:30 AM,59.0,57.2,94,30.06,6.2,NE,2.3,-,N/A,,Partly Cloudy,40,2012-10-04 04:30:00
7:00 AM,59.0,57.2,94,30.06,6.2,Variable,2.3,-,N/A,,Partly Cloudy,0,2012-10-04 05:00:00
7:30 AM,59.0,57.2,94,30.06,6.2,Variable,2.3,-,N/A,,Partly Cloudy,0,2012-10-04 05:30:00
8:00 AM,58,54,82,30.07,19,Calm,Calm,,,,Scattered Clouds,,2012-10-04 06:00:00
8:00 AM,59.0,55.4,88,30.06,6.2,Variable,2.3,-,N/A,,Partly Cloudy,0,2012-10-04 06:00:00
8:30 AM,60.8,59.0,94,30.06,6.2,Variable,1.2,-,N/A,,Partly Cloudy,0,2012-10-04 06:30:00
9:00 AM,62.6,60.8,94,30.06,-9999.0,NNE,1.2,-,N/A,,Clear,30,2012-10-04 07:00:00
9:30 AM,66.2,62.6,88,30.06,-9999.0,Variable,1.2,-,N/A,,Clear,0,2012-10-04 07:30:00
10:00 AM,68.0,62.6,83,30.06,-9999.0,Variable,2.3,-,N/A,,Clear,0,2012-10-04 08:00:00
10:30 AM,71.6,62.6,73,30.06,-9999.0,ENE,3.5,-,N/A,,Clear,60,2012-10-04 08:30:00
11:00 AM,75.2,62.6,65,30.06,-9999.0,Variable,2.3,-,N/A,,Clear,0,2012-10-04 09:00:00
11:30 AM,75.2,60.8,61,30.06,-9999.0,NE,2.3,-,N/A,,Clear,40,2012-10-04 09:30:00
12:00 PM,78.8,57.2,47,30.06,-9999.0,Variable,1.2,-,N/A,,Clear,0,2012-10-04 10:00:00
12:30 PM,78.8,57.2,47,30.06,-9999.0,Variable,2.3,-,N/A,,Clear,0,2012-10-04 10:30:00
1:00 PM,82.4,59.0,45,30.06,-9999.0,NE,2.3,-,N/A,,Clear,50,2012-10-04 11:00:00
1:30 PM,82.4,57.2,42,30.04,-9999.0,Variable,2.3,-,N/A,,Clear,0,2012-10-04 11:30:00
2:00 PM,80,58,37,30.05,19,SW,10.4,,,,,230,2012-10-04 12:00:00
2:00 PM,80.6,62.6,54,30.04,-9999.0,SW,10.4,-,N/A,,Clear,230,2012-10-04 12:00:00
2:30 PM,78.8,64.4,61,30.04,-9999.0,SW,11.5,-,N/A,,Clear,230,2012-10-04 12:30:00
3:00 PM,78.8,64.4,61,30.04,-9999.0,SW,9.2,-,N/A,,Clear,230,2012-10-04 13:00:00
3:30 PM,78.8,64.4,61,30.04,-9999.0,West,6.9,-,N/A,,Clear,260,2012-10-04 13:30:00
4:00 PM,78.8,64.4,61,30.01,-9999.0,West,8.1,-,N/A,,Clear,280,2012-10-04 14:00:00
4:30 PM,80.6,66.2,61,30.01,-9999.0,West,6.9,-,N/A,,Clear,280,2012-10-04 14:30:00
5:00 PM,78.8,66.2,65,30.01,6.2,WNW,6.9,-,N/A,,Partly Cloudy,300,2012-10-04 15:00:00
5:30 PM,78.8,66.2,65,30.01,6.2,West,9.2,-,N/A,,Partly Cloudy,270,2012-10-04 15:30:00
6:00 PM,78.8,66.2,65,30.01,6.2,WSW,1.2,-,N/A,,Partly Cloudy,240,2012-10-04 16:00:00
6:30 PM,78.8,66.2,65,30.01,6.2,East,5.8,-,N/A,,Partly Cloudy,90,2012-10-04 16:30:00
7:00 PM,78.8,62.6,57,30.01,-9999.0,East,6.9,-,N/A,,Clear,80,2012-10-04 17:00:00
7:30 PM,77.0,62.6,61,30.01,-9999.0,East,5.8,-,N/A,,Clear,100,2012-10-04 17:30:00
8:00 PM,74,58,48,30.03,12,East,6.9,,,,Clear,80,2012-10-04 18:00:00
8:00 PM,73.4,62.6,69,30.01,-9999.0,East,6.9,-,N/A,,Clear,90,2012-10-04 18:00:00
8:30 PM,73.4,62.6,69,30.04,-9999.0,ENE,6.9,-,N/A,,Clear,70,2012-10-04 18:30:00
9:00 PM,71.6,64.4,78,30.04,-9999.0,ENE,2.3,-,N/A,,Clear,70,2012-10-04 19:00:00
9:30 PM,69.8,64.4,83,30.04,-9999.0,ENE,4.6,-,N/A,,Clear,60,2012-10-04 19:30:00
10:00 PM,69.8,64.4,83,30.04,-9999.0,NE,3.5,-,N/A,,Clear,50,2012-10-04 20:00:00
10:30 PM,68.0,64.4,88,30.06,-9999.0,NE,4.6,-,N/A,,Clear,40,2012-10-04 20:30:00
11:00 PM,68.0,64.4,88,30.06,-9999.0,NE,6.9,-,N/A,,Clear,40,2012-10-04 21:00:00
11:30 PM,68.0,64.4,88,30.06,-9999.0,ENE,2.3,-,N/A,,Clear,60,2012-10-04 21:30:00